createdAt,value
2023-02-13T00:00:14.679Z,3.09
2023-02-13T00:00:58.141Z,3.11
2023-02-13T00:01:50.592Z,3.12
2023-02-13T00:02:45.920Z,3.04
2023-02-13T00:03:31.490Z,3.12
2023-02-13T00:04:20.061Z,3.12
2023-02-13T00:05:07.962Z,3.11
2023-02-13T00:05:49.690Z,3.00
2023-02-13T00:06:33.477Z,3.07
2023-02-13T00:07:20.994Z,3.12
2023-02-13T00:08:08.251Z,2.99
2023-02-13T00:09:04.682Z,3.12
2023-02-13T00:09:56.794Z,2.98
2023-02-13T00:10:43.560Z,3.09
2023-02-13T00:11:32.706Z,3.16
2023-02-13T00:12:28.856Z,3.18
2023-02-13T00:13:15.648Z,3.17
2023-02-13T00:13:58.445Z,3.06
2023-02-13T00:14:40.453Z,3.02
2023-02-13T00:15:36.736Z,3.18
2023-02-13T00:16:19.967Z,3.17
2023-02-13T00:17:01.906Z,3.06
2023-02-13T00:17:48.457Z,2.98
2023-02-13T00:18:44.878Z,3.12
2023-02-13T00:19:43.578Z,3.07
2023-02-13T00:20:25.280Z,3.04
2023-02-13T00:21:15.198Z,3.02
2023-02-13T00:22:02.949Z,2.98
2023-02-13T00:22:49.095Z,2.96
2023-02-13T00:23:35.278Z,2.83
2023-02-13T00:24:22.486Z,2.46
2023-02-13T00:25:07.979Z,2.79
2023-02-13T00:26:09.872Z,2.91
2023-02-13T00:26:53.168Z,2.91
2023-02-13T00:27:42.584Z,2.90
2023-02-13T00:28:27.580Z,2.78
2023-02-13T00:29:12.327Z,2.88
2023-02-13T00:30:04.418Z,2.77
2023-02-13T00:30:46.665Z,2.78
2023-02-13T00:31:36.557Z,2.62
2023-02-13T00:32:19.731Z,2.82
2023-02-13T00:33:10.329Z,2.75
2023-02-13T00:33:57.913Z,2.81
2023-02-13T00:34:39.622Z,2.65
2023-02-13T00:35:26.796Z,2.82
2023-02-13T00:36:24.448Z,2.82
2023-02-13T00:37:07.566Z,2.82
2023-02-13T00:37:51.577Z,2.82
2023-02-13T00:38:50.468Z,2.81
2023-02-13T00:39:35.139Z,2.62
2023-02-13T00:40:19.855Z,2.78
2023-02-13T00:41:12.329Z,2.80
2023-02-13T00:42:04.125Z,2.80
2023-02-13T00:42:45.787Z,2.71
2023-02-13T00:43:28.096Z,2.80
2023-02-13T00:44:17.525Z,2.79
2023-02-13T00:45:11.676Z,2.63
2023-02-13T00:45:59.626Z,2.79
2023-02-13T00:46:58.850Z,2.78
2023-02-13T00:47:40.602Z,2.79
2023-02-13T00:48:40.780Z,2.79
2023-02-13T00:49:22.827Z,2.72
2023-02-13T00:50:04.996Z,2.78
2023-02-13T00:51:03.470Z,2.77
2023-02-13T00:51:56.356Z,2.78
2023-02-13T00:52:38.018Z,2.77
2023-02-13T00:53:31.789Z,2.72
2023-02-13T00:54:23.662Z,2.78
2023-02-13T00:55:08.466Z,2.70
2023-02-13T00:55:52.272Z,2.81
2023-02-13T00:56:45.422Z,2.82
2023-02-13T00:57:33.018Z,2.83
2023-02-13T00:58:35.042Z,2.85
2023-02-13T00:59:25.488Z,2.78
2023-02-13T01:00:13.679Z,2.87
2023-02-13T01:01:05.545Z,2.68
2023-02-13T01:02:01.616Z,2.92
2023-02-13T01:02:44.454Z,2.89
2023-02-13T01:03:28.900Z,2.83
2023-02-13T01:04:20.402Z,2.95
2023-02-13T01:05:11.323Z,2.77
2023-02-13T01:06:01.988Z,2.85
2023-02-13T01:07:15.753Z,2.99
2023-02-13T01:08:03.838Z,3.03
2023-02-13T01:08:48.156Z,2.86
2023-02-13T01:10:49.627Z,3.11
2023-02-13T01:11:43.163Z,3.06
2023-02-13T01:12:31.925Z,2.95
2023-02-13T01:13:20.982Z,3.14
2023-02-13T01:14:10.143Z,3.09
2023-02-13T01:14:52.545Z,3.08
2023-02-13T01:15:37.391Z,3.09
2023-02-13T01:16:32.317Z,3.14
2023-02-13T01:17:25.869Z,3.20
2023-02-13T01:18:13.351Z,3.22
2023-02-13T01:18:57.637Z,3.22
2023-02-13T01:19:45.322Z,3.23
2023-02-13T01:20:35.846Z,3.15
2023-02-13T01:21:24.424Z,3.23
2023-02-13T01:22:16.883Z,3.16
2023-02-13T01:22:58.904Z,3.21
2023-02-13T01:23:48.235Z,3.17
2023-02-13T01:24:34.203Z,3.29
2023-02-13T01:25:18.536Z,3.29
2023-02-13T01:26:11.772Z,3.21
2023-02-13T01:26:53.481Z,3.06
2023-02-13T01:27:47.238Z,3.16
2023-02-13T01:28:38.623Z,3.13
2023-02-13T01:29:26.650Z,3.16
2023-02-13T01:30:15.461Z,3.32
2023-02-13T01:30:58.478Z,3.16
2023-02-13T01:31:45.660Z,3.24
2023-02-13T01:32:33.295Z,3.25
2023-02-13T01:33:19.354Z,3.30
2023-02-13T01:34:01.037Z,3.34
2023-02-13T01:34:46.732Z,3.35
2023-02-13T01:35:40.123Z,3.35
2023-02-13T01:36:30.737Z,3.37
2023-02-13T01:37:15.021Z,3.36
2023-02-13T01:37:56.749Z,3.36
2023-02-13T01:38:41.724Z,3.36
2023-02-13T01:39:28.303Z,3.36
2023-02-13T01:40:17.222Z,3.26
2023-02-13T01:41:00.809Z,3.34
2023-02-13T01:41:42.524Z,3.32
2023-02-13T01:42:40.885Z,3.32
2023-02-13T01:43:27.987Z,3.30
2023-02-13T01:44:51.730Z,3.30
2023-02-13T01:45:37.181Z,3.28
2023-02-13T01:46:45.067Z,3.27
2023-02-13T01:47:41.063Z,2.94
2023-02-13T01:48:32.952Z,3.15
2023-02-13T01:49:28.508Z,3.21
2023-02-13T01:50:18.757Z,3.20
2023-02-13T01:51:17.458Z,3.07
2023-02-13T01:51:59.138Z,3.16
2023-02-13T01:52:54.008Z,3.15
2023-02-13T01:54:05.658Z,3.14
2023-02-13T01:54:58.268Z,3.11
2023-02-13T01:55:50.942Z,3.06
2023-02-13T01:56:46.943Z,3.13
2023-02-13T01:57:56.757Z,3.14
2023-02-13T01:58:55.907Z,3.16
2023-02-13T02:00:18.364Z,3.20
2023-02-13T02:01:05.864Z,3.16
2023-02-13T02:02:00.957Z,3.13
2023-02-13T02:02:53.150Z,3.25
2023-02-13T02:03:52.451Z,3.25
2023-02-13T02:04:41.771Z,3.29
2023-02-13T02:05:33.581Z,3.32
2023-02-13T02:06:25.699Z,3.33
2023-02-13T02:07:34.175Z,3.33
2023-02-13T02:08:46.051Z,3.32
2023-02-13T02:09:46.318Z,3.31
2023-02-13T02:10:33.974Z,3.25
2023-02-13T02:11:28.602Z,3.29
2023-02-13T02:12:21.358Z,3.05
2023-02-13T02:13:18.055Z,3.14
2023-02-13T02:14:05.027Z,3.19
2023-02-13T02:14:58.530Z,3.13
2023-02-13T02:15:51.088Z,3.24
2023-02-13T02:16:37.876Z,3.18
2023-02-13T02:17:21.603Z,3.08
2023-02-13T02:18:31.979Z,3.15
2023-02-13T02:19:42.534Z,3.10
2023-02-13T02:20:48.575Z,2.92
2023-02-13T02:21:52.242Z,3.04
2023-02-13T02:23:18.263Z,3.00
2023-02-13T02:24:29.348Z,2.97
2023-02-13T02:25:50.535Z,2.90
2023-02-13T02:26:56.928Z,2.84
2023-02-13T02:28:06.197Z,2.82
2023-02-13T02:29:31.014Z,2.77
2023-02-13T02:30:43.175Z,2.73
2023-02-13T02:32:01.527Z,2.68
2023-02-13T02:33:07.691Z,2.67
2023-02-13T02:34:10.487Z,2.63
2023-02-13T02:35:20.496Z,2.53
2023-02-13T02:36:33.454Z,2.58
2023-02-13T02:37:18.476Z,2.57
2023-02-13T02:38:19.169Z,2.49
2023-02-13T02:39:19.728Z,2.53
2023-02-13T02:40:33.512Z,2.50
2023-02-13T02:41:47.334Z,2.45
2023-02-13T02:43:00.884Z,2.44
2023-02-13T02:44:00.505Z,2.43
2023-02-13T02:44:52.758Z,2.42
2023-02-13T02:46:04.328Z,2.41
2023-02-13T02:47:37.317Z,2.40
2023-02-13T02:48:57.719Z,2.38
2023-02-13T02:50:01.941Z,2.35
2023-02-13T02:50:48.666Z,2.26
2023-02-13T02:51:43.026Z,2.29
2023-02-13T02:53:11.040Z,1.63
2023-02-13T02:54:02.731Z,2.14
2023-02-13T02:55:10.223Z,2.02
2023-02-13T02:56:30.868Z,2.12
2023-02-13T02:57:53.931Z,2.15
2023-02-13T02:59:00.674Z,2.07
2023-02-13T03:00:31.538Z,1.95
2023-02-13T03:01:43.613Z,2.07
2023-02-13T03:02:50.753Z,2.03
2023-02-13T03:03:55.542Z,2.03
2023-02-13T03:05:09.692Z,1.86
2023-02-13T03:06:10.554Z,1.90
2023-02-13T03:07:15.729Z,1.71
2023-02-13T03:07:57.462Z,1.80
2023-02-13T03:09:06.291Z,1.89
2023-02-13T03:10:17.411Z,1.89
2023-02-13T03:11:19.115Z,1.82
2023-02-13T03:12:30.772Z,1.76
2023-02-13T03:13:24.549Z,1.82
2023-02-13T03:14:14.025Z,1.72
2023-02-13T03:15:04.039Z,1.59
2023-02-13T03:16:22.573Z,1.76
2023-02-13T03:17:31.308Z,1.75
2023-02-13T03:18:32.853Z,1.74
2023-02-13T03:19:52.467Z,1.75
2023-02-13T03:21:06.144Z,1.77
2023-02-13T03:22:08.324Z,1.76
2023-02-13T03:23:15.111Z,1.76
2023-02-13T03:24:23.234Z,1.74
2023-02-13T03:25:40.359Z,1.60
2023-02-13T03:26:46.019Z,1.63
2023-02-13T03:28:06.407Z,1.57
2023-02-13T03:29:21.594Z,1.49
2023-02-13T03:30:51.306Z,1.39
2023-02-13T03:31:43.168Z,1.18
2023-02-13T03:32:41.613Z,1.30
2023-02-13T03:33:40.865Z,1.28
2023-02-13T03:34:51.247Z,1.25
2023-02-13T03:36:15.913Z,1.15
2023-02-13T03:37:28.364Z,1.19
2023-02-13T03:38:48.671Z,1.32
2023-02-13T03:40:05.486Z,1.35
2023-02-13T03:41:19.508Z,1.18
2023-02-13T03:42:15.807Z,1.35
2023-02-13T03:43:14.341Z,1.36
2023-02-13T03:44:03.614Z,1.36
2023-02-13T03:45:24.429Z,1.32
2023-02-13T03:46:22.379Z,1.34
2023-02-13T03:47:06.861Z,1.11
2023-02-13T03:47:52.725Z,1.33
2023-02-13T03:49:00.131Z,1.30
2023-02-13T03:50:07.925Z,1.23
2023-02-13T03:50:53.170Z,1.27
2023-02-13T03:52:05.469Z,1.26
2023-02-13T03:53:06.247Z,1.19
2023-02-13T03:54:03.829Z,1.17
2023-02-13T03:55:15.023Z,1.05
2023-02-13T03:56:27.981Z,1.24
2023-02-13T03:57:53.476Z,1.08
2023-02-13T03:59:09.092Z,1.15
2023-02-13T03:59:53.914Z,1.20
2023-02-13T04:00:46.539Z,1.20
2023-02-13T04:01:41.419Z,1.08
2023-02-13T04:02:42.628Z,1.20
2023-02-13T04:03:31.929Z,1.19
2023-02-13T04:05:04.774Z,1.18
2023-02-13T04:05:54.376Z,1.17
2023-02-13T04:06:58.134Z,1.14
2023-02-13T04:07:39.945Z,1.12
2023-02-13T04:08:37.316Z,0.91
2023-02-13T04:09:19.183Z,0.98
2023-02-13T04:10:12.644Z,1.05
2023-02-13T04:11:07.572Z,1.06
2023-02-13T04:12:01.232Z,1.05
2023-02-13T04:13:07.750Z,1.01
2023-02-13T04:14:02.409Z,1.00
2023-02-13T04:14:49.265Z,1.00
2023-02-13T04:15:53.990Z,0.80
2023-02-13T04:16:55.668Z,0.88
2023-02-13T04:18:07.853Z,0.91
2023-02-13T04:18:55.743Z,0.97
2023-02-13T04:19:57.591Z,0.95
2023-02-13T04:20:43.389Z,0.96
2023-02-13T04:21:37.919Z,1.00
2023-02-13T04:22:25.349Z,0.92
2023-02-13T04:23:09.886Z,1.00
2023-02-13T04:23:54.476Z,0.73
2023-02-13T04:24:39.001Z,0.97
2023-02-13T04:25:20.832Z,1.06
2023-02-13T04:26:28.319Z,0.92
2023-02-13T04:27:20.666Z,1.07
2023-02-13T04:28:05.579Z,1.03
2023-02-13T04:28:48.587Z,1.04
2023-02-13T04:29:33.154Z,1.09
2023-02-13T04:30:16.526Z,1.12
2023-02-13T04:31:09.815Z,1.12
2023-02-13T04:31:54.478Z,0.95
2023-02-13T04:32:42.027Z,0.99
2023-02-13T04:33:26.045Z,0.96
2023-02-13T04:34:07.872Z,1.01
2023-02-13T04:34:56.761Z,1.11
2023-02-13T04:36:55.656Z,0.92
2023-02-13T04:37:40.020Z,1.18
2023-02-13T04:38:24.419Z,1.07
2023-02-13T04:39:14.885Z,1.12
2023-02-13T04:39:58.796Z,1.04
2023-02-13T04:40:43.172Z,1.24
2023-02-13T04:41:24.894Z,1.27
2023-02-13T04:42:17.745Z,1.06
2023-02-13T04:43:04.738Z,1.21
2023-02-13T04:44:01.070Z,1.30
2023-02-13T04:44:53.081Z,1.31
2023-02-13T04:45:34.903Z,1.24
2023-02-13T04:46:17.871Z,1.33
2023-02-13T04:47:08.398Z,1.19
2023-02-13T04:48:02.571Z,1.38
2023-02-13T04:48:47.582Z,1.39
2023-02-13T04:49:38.812Z,1.42
2023-02-13T04:50:26.092Z,1.45
2023-02-13T04:51:09.460Z,1.48
2023-02-13T04:51:51.168Z,1.50
2023-02-13T04:52:32.982Z,1.50
2023-02-13T04:53:17.296Z,1.26
2023-02-13T04:54:16.625Z,1.27
2023-02-13T04:55:00.879Z,1.44
2023-02-13T04:55:47.602Z,1.18
2023-02-13T04:56:32.287Z,1.43
2023-02-13T04:57:20.667Z,1.38
2023-02-13T04:58:12.577Z,1.45
2023-02-13T04:58:59.845Z,1.38
2023-02-13T04:59:47.117Z,1.48
2023-02-13T05:00:29.295Z,1.50
2023-02-13T05:01:18.528Z,1.54
2023-02-13T05:02:00.250Z,1.51
2023-02-13T05:02:46.143Z,1.56
2023-02-13T05:03:30.768Z,1.72
2023-02-13T05:04:17.534Z,1.73
2023-02-13T05:05:04.895Z,1.78
2023-02-13T05:05:49.722Z,1.63
2023-02-13T05:06:33.113Z,1.83
2023-02-13T05:07:17.954Z,1.79
2023-02-13T05:08:19.874Z,1.98
2023-02-13T05:09:07.279Z,1.92
2023-02-13T05:09:56.443Z,2.02
2023-02-13T05:10:42.171Z,1.89
2023-02-13T05:11:26.200Z,2.05
2023-02-13T05:12:17.774Z,1.88
2023-02-13T05:13:05.381Z,1.79
2023-02-13T05:13:47.039Z,1.86
2023-02-13T05:14:35.532Z,1.97
2023-02-13T05:15:22.490Z,2.01
2023-02-13T05:16:04.334Z,2.11
2023-02-13T05:17:03.814Z,2.16
2023-02-13T05:17:49.388Z,2.17
2023-02-13T05:18:44.324Z,2.06
2023-02-13T05:19:26.081Z,2.09
2023-02-13T05:20:17.169Z,2.10
2023-02-13T05:21:17.471Z,1.93
2023-02-13T05:22:20.657Z,1.90
2023-02-13T05:23:24.970Z,2.06
2023-02-13T05:24:10.827Z,1.89
2023-02-13T05:24:52.474Z,2.02
2023-02-13T05:25:35.461Z,2.03
2023-02-13T05:26:17.103Z,1.89
2023-02-13T05:27:01.545Z,2.07
2023-02-13T05:27:46.229Z,2.03
2023-02-13T05:28:49.504Z,2.03
2023-02-13T05:29:31.183Z,2.01
2023-02-13T05:30:13.684Z,2.12
2023-02-13T05:31:01.540Z,2.20
2023-02-13T05:31:43.611Z,2.12
2023-02-13T05:32:30.958Z,2.22
2023-02-13T05:33:19.541Z,2.25
2023-02-13T05:34:03.681Z,2.25
2023-02-13T05:34:50.035Z,2.23
2023-02-13T05:35:33.982Z,2.18
2023-02-13T05:37:36.111Z,2.45
2023-02-13T05:38:20.820Z,2.52
2023-02-13T05:39:12.396Z,2.57
2023-02-13T05:39:56.865Z,2.49
2023-02-13T05:40:46.234Z,2.41
2023-02-13T05:41:30.749Z,2.41
2023-02-13T05:42:16.461Z,2.39
2023-02-13T05:43:03.837Z,2.31
2023-02-13T05:43:50.555Z,2.29
2023-02-13T05:44:37.199Z,1.99
2023-02-13T05:45:26.581Z,1.92
2023-02-13T05:46:10.258Z,2.03
2023-02-13T05:46:53.274Z,1.80
2023-02-13T05:47:37.847Z,1.91
2023-02-13T05:48:31.878Z,1.84
2023-02-13T05:49:23.436Z,2.06
2023-02-13T05:50:05.917Z,2.11
2023-02-13T05:50:58.285Z,2.09
2023-02-13T05:51:50.699Z,2.31
2023-02-13T05:52:36.704Z,2.43
2023-02-13T05:53:18.403Z,2.42
2023-02-13T05:54:00.206Z,2.45
2023-02-13T05:54:47.752Z,2.38
2023-02-13T05:55:38.687Z,2.37
2023-02-13T05:56:26.532Z,2.51
2023-02-13T05:57:08.228Z,2.52
2023-02-13T05:58:05.167Z,2.44
2023-02-13T05:58:46.931Z,2.45
2023-02-13T05:59:30.029Z,2.46
2023-02-13T06:00:14.701Z,2.47
2023-02-13T06:01:00.765Z,2.49
2023-02-13T06:01:46.779Z,2.47
2023-02-13T06:02:40.535Z,2.42
2023-02-13T06:03:29.002Z,2.62
2023-02-13T06:04:13.891Z,2.72
2023-02-13T06:04:55.666Z,2.59
2023-02-13T06:05:37.354Z,2.68
2023-02-13T06:06:22.773Z,2.59
2023-02-13T06:07:05.460Z,2.59
2023-02-13T06:07:55.616Z,2.56
2023-02-13T06:08:40.120Z,2.31
2023-02-13T06:09:27.151Z,2.47
2023-02-13T06:10:18.559Z,2.67
2023-02-13T06:11:00.660Z,2.60
2023-02-13T06:11:45.227Z,2.70
2023-02-13T06:12:26.863Z,2.67
2023-02-13T06:13:14.150Z,2.63
2023-02-13T06:13:58.693Z,2.88
2023-02-13T06:14:48.891Z,2.94
2023-02-13T06:15:38.435Z,2.97
2023-02-13T06:16:26.884Z,3.02
2023-02-13T06:17:08.675Z,2.85
2023-02-13T06:17:58.610Z,3.03
2023-02-13T06:18:43.462Z,3.11
2023-02-13T06:19:29.359Z,3.06
2023-02-13T06:20:15.582Z,2.99
2023-02-13T06:20:57.675Z,3.06
2023-02-13T06:21:44.267Z,3.18
2023-02-13T06:22:33.543Z,3.18
2023-02-13T06:23:20.915Z,3.11
2023-02-13T06:24:05.886Z,3.08
2023-02-13T06:24:50.250Z,3.05
2023-02-13T06:25:43.839Z,2.79
2023-02-13T06:26:25.548Z,2.76
2023-02-13T06:27:07.239Z,2.92
2023-02-13T06:27:53.748Z,2.73
2023-02-13T06:28:41.495Z,2.89
2023-02-13T06:29:26.275Z,2.87
2023-02-13T06:30:08.532Z,2.87
2023-02-13T06:30:55.824Z,2.83
2023-02-13T06:31:40.371Z,2.89
2023-02-13T06:32:30.303Z,2.78
2023-02-13T06:33:15.095Z,2.59
2023-02-13T06:34:08.565Z,2.77
2023-02-13T06:34:53.060Z,2.66
2023-02-13T06:35:37.935Z,2.51
2023-02-13T06:36:25.724Z,2.63
2023-02-13T06:37:09.687Z,2.58
2023-02-13T06:37:51.428Z,2.57
2023-02-13T06:38:41.631Z,2.60
2023-02-13T06:39:26.082Z,2.67
2023-02-13T06:40:12.891Z,2.65
2023-02-13T06:41:00.900Z,2.62
2023-02-13T06:41:47.902Z,2.48
2023-02-13T06:42:31.709Z,2.60
2023-02-13T06:43:37.783Z,2.43
2023-02-13T06:44:24.427Z,2.50
2023-02-13T06:45:09.888Z,2.39
2023-02-13T06:45:55.012Z,2.47
2023-02-13T06:46:52.982Z,2.37
2023-02-13T06:47:50.299Z,2.37
2023-02-13T06:48:32.034Z,2.46
2023-02-13T06:49:21.030Z,2.51
2023-02-13T06:50:16.613Z,2.48
2023-02-13T06:51:06.924Z,2.51
2023-02-13T06:51:50.880Z,2.48
2023-02-13T06:52:32.600Z,2.54
2023-02-13T06:53:16.615Z,2.26
2023-02-13T06:54:00.815Z,2.49
2023-02-13T06:54:52.282Z,2.44
2023-02-13T06:55:34.033Z,2.46
2023-02-13T06:56:17.148Z,2.39
2023-02-13T06:57:04.542Z,2.47
2023-02-13T06:57:49.345Z,2.45
2023-02-13T06:58:37.891Z,2.41
2023-02-13T06:59:23.747Z,2.36
2023-02-13T07:00:18.196Z,2.40
2023-02-13T07:01:13.745Z,2.38
2023-02-13T07:02:03.045Z,2.28
2023-02-13T07:02:46.650Z,2.48
2023-02-13T07:03:45.249Z,2.41
2023-02-13T07:04:29.949Z,2.42
2023-02-13T07:05:12.087Z,2.47
2023-02-13T07:06:00.141Z,2.53
2023-02-13T07:06:49.780Z,2.49
2023-02-13T07:07:46.936Z,2.61
2023-02-13T07:08:29.308Z,2.71
2023-02-13T07:09:16.045Z,2.75
2023-02-13T07:10:00.783Z,2.75
2023-02-13T07:10:42.618Z,2.79
2023-02-13T07:11:25.402Z,2.82
2023-02-13T07:12:13.924Z,2.84
2023-02-13T07:13:06.507Z,2.96
2023-02-13T07:13:50.527Z,2.98
2023-02-13T07:14:32.283Z,2.79
2023-02-13T07:15:17.023Z,2.96
2023-02-13T07:16:01.263Z,2.94
2023-02-13T07:16:45.460Z,2.96
2023-02-13T07:17:37.352Z,2.96
2023-02-13T07:18:23.382Z,2.86
2023-02-13T07:19:16.603Z,2.65
2023-02-13T07:20:04.703Z,2.73
2023-02-13T07:20:52.889Z,2.72
2023-02-13T07:21:38.012Z,2.67
2023-02-13T07:22:30.039Z,2.56
2023-02-13T07:23:15.765Z,2.37
2023-02-13T07:23:57.448Z,2.37
2023-02-13T07:24:50.496Z,2.45
2023-02-13T07:25:47.105Z,2.41
2023-02-13T07:26:52.927Z,2.52
2023-02-13T07:27:36.572Z,2.55
2023-02-13T07:28:22.241Z,2.56
2023-02-13T07:29:12.136Z,2.55
2023-02-13T07:29:56.456Z,2.59
2023-02-13T07:31:05.113Z,2.52
2023-02-13T07:31:52.571Z,2.62
2023-02-13T07:32:41.076Z,2.47
2023-02-13T07:33:24.396Z,2.55
2023-02-13T07:34:07.671Z,2.41
2023-02-13T07:35:01.255Z,2.46
2023-02-13T07:35:52.494Z,2.68
2023-02-13T07:36:34.290Z,2.64
2023-02-13T07:37:16.007Z,2.44
2023-02-13T07:38:00.835Z,2.71
2023-02-13T07:38:47.928Z,2.72
2023-02-13T07:39:31.701Z,2.66
2023-02-13T07:40:13.527Z,2.75
2023-02-13T07:40:55.791Z,2.60
2023-02-13T07:41:37.714Z,2.77
2023-02-13T07:42:24.941Z,2.82
2023-02-13T07:43:18.171Z,2.86
2023-02-13T07:44:09.137Z,2.89
2023-02-13T07:44:50.868Z,2.88
2023-02-13T07:45:34.513Z,2.92
2023-02-13T07:46:16.295Z,2.84
2023-02-13T07:47:05.691Z,2.79
2023-02-13T07:47:50.220Z,2.96
2023-02-13T07:48:43.525Z,2.79
2023-02-13T07:49:29.058Z,2.67
2023-02-13T07:51:15.590Z,3.01
2023-02-13T07:52:00.388Z,2.87
2023-02-13T07:52:43.368Z,2.94
2023-02-13T07:53:31.593Z,3.08
2023-02-13T07:54:22.336Z,3.09
2023-02-13T07:55:08.932Z,2.94
2023-02-13T07:55:50.613Z,3.12
2023-02-13T07:56:47.922Z,3.10
2023-02-13T07:57:34.544Z,3.02
2023-02-13T07:58:18.420Z,3.16
2023-02-13T07:59:08.599Z,3.15
2023-02-13T08:00:05.209Z,3.19
2023-02-13T08:01:00.120Z,3.09
2023-02-13T08:01:44.640Z,3.17
2023-02-13T08:02:26.364Z,3.04
2023-02-13T08:03:25.324Z,3.12
2023-02-13T08:04:17.170Z,3.21
2023-02-13T08:05:13.512Z,3.21
2023-02-13T08:05:58.309Z,3.38
2023-02-13T08:06:49.781Z,3.25
2023-02-13T08:07:34.564Z,3.15
2023-02-13T08:08:23.263Z,3.26
2023-02-13T08:09:39.664Z,3.24
2023-02-13T08:10:51.592Z,3.33
2023-02-13T08:11:58.646Z,2.96
2023-02-13T08:12:55.669Z,3.02
2023-02-13T08:13:39.806Z,3.10
2023-02-13T08:14:29.674Z,3.13
2023-02-13T08:15:23.768Z,3.10
2023-02-13T08:16:10.848Z,3.08
2023-02-13T08:17:04.852Z,3.09
2023-02-13T08:17:49.251Z,3.09
2023-02-13T08:18:47.961Z,3.13
2023-02-13T08:19:38.208Z,3.01
2023-02-13T08:20:26.576Z,3.21
2023-02-13T08:21:10.371Z,3.09
2023-02-13T08:22:03.676Z,3.06
2023-02-13T08:22:50.240Z,3.20
2023-02-13T08:23:38.992Z,3.17
2023-02-13T08:24:23.559Z,3.36
2023-02-13T08:25:08.885Z,3.45
2023-02-13T08:25:50.571Z,3.51
2023-02-13T08:26:41.194Z,3.28
2023-02-13T08:27:28.095Z,3.43
2023-02-13T08:28:11.913Z,3.63
2023-02-13T08:29:16.725Z,3.50
2023-02-13T08:30:03.186Z,3.47
2023-02-13T08:30:47.566Z,3.51
2023-02-13T08:31:38.931Z,3.27
2023-02-13T08:32:24.877Z,3.31
2023-02-13T08:33:06.719Z,3.50
2023-02-13T08:33:48.481Z,3.45
2023-02-13T08:34:30.263Z,3.53
2023-02-13T08:35:12.213Z,3.54
2023-02-13T08:35:53.904Z,3.55
2023-02-13T08:36:47.616Z,3.60
2023-02-13T08:37:35.158Z,3.66
2023-02-13T08:38:30.197Z,3.63
2023-02-13T08:39:14.989Z,3.54
2023-02-13T08:40:02.127Z,3.57
2023-02-13T08:40:48.646Z,3.62
2023-02-13T08:42:15.986Z,3.67
2023-02-13T08:43:09.830Z,3.92
2023-02-13T08:44:13.510Z,4.06
2023-02-13T08:45:07.952Z,4.17
2023-02-13T08:45:56.007Z,4.23
2023-02-13T08:46:53.224Z,4.29
2023-02-13T08:47:38.094Z,4.32
2023-02-13T08:49:23.558Z,4.13
2023-02-13T08:50:12.800Z,4.40
2023-02-13T08:51:04.626Z,4.36
2023-02-13T08:51:49.639Z,4.16
2023-02-13T08:52:36.788Z,4.31
2023-02-13T08:53:35.738Z,4.29
2023-02-13T08:54:37.612Z,4.33
2023-02-13T08:55:29.588Z,4.36
2023-02-13T08:56:20.161Z,4.38
2023-02-13T08:57:11.593Z,4.42
2023-02-13T08:57:55.797Z,4.47
2023-02-13T08:58:44.204Z,4.52
2023-02-13T08:59:28.529Z,4.66
2023-02-13T09:00:21.017Z,4.69
2023-02-13T09:01:15.780Z,4.81
2023-02-13T09:02:10.626Z,4.80
2023-02-13T09:04:29.028Z,5.03
2023-02-13T09:05:27.474Z,4.83
2023-02-13T09:06:21.813Z,4.88
2023-02-13T09:07:09.408Z,4.96
2023-02-13T09:07:53.758Z,4.99
2023-02-13T09:08:42.383Z,5.03
2023-02-13T09:09:37.257Z,4.89
2023-02-13T09:10:33.054Z,4.94
2023-02-13T09:11:19.499Z,4.92
2023-02-13T09:12:15.568Z,4.69
2023-02-13T09:13:09.992Z,4.88
2023-02-13T09:14:00.562Z,4.71
2023-02-13T09:14:54.423Z,4.55
2023-02-13T09:15:58.672Z,4.69
2023-02-13T09:16:48.391Z,4.72
2023-02-13T09:17:48.699Z,4.65
2023-02-13T09:18:41.396Z,4.53
2023-02-13T09:19:25.615Z,4.49
2023-02-13T09:20:12.449Z,4.51
2023-02-13T09:21:17.919Z,4.55
2023-02-13T09:22:05.776Z,4.73
2023-02-13T09:22:52.103Z,4.74
2023-02-13T09:23:41.554Z,4.58
2023-02-13T09:24:36.642Z,4.73
2023-02-13T09:25:51.321Z,4.86
2023-02-13T09:27:04.650Z,5.10
2023-02-13T09:27:57.110Z,5.07
2023-02-13T09:28:59.556Z,5.04
2023-02-13T09:29:47.349Z,5.18
2023-02-13T09:30:39.912Z,5.21
2023-02-13T09:31:40.082Z,5.09
2023-02-13T09:32:35.350Z,5.08
2023-02-13T09:33:38.265Z,5.20
2023-02-13T09:34:32.827Z,5.29
2023-02-13T09:35:27.126Z,5.37
2023-02-13T09:36:23.613Z,5.35
2023-02-13T09:37:43.518Z,5.52
2023-02-13T09:38:33.472Z,5.46
2023-02-13T09:39:30.471Z,5.36
2023-02-13T09:40:31.298Z,5.44
2023-02-13T09:41:42.032Z,5.88
2023-02-13T09:42:39.712Z,5.88
2023-02-13T09:44:05.503Z,5.83
2023-02-13T09:45:11.161Z,5.73
2023-02-13T09:46:43.729Z,6.20
2023-02-13T09:47:34.753Z,5.92
2023-02-13T09:48:31.829Z,5.87
2023-02-13T09:49:35.208Z,5.97
2023-02-13T09:50:25.324Z,6.03
2023-02-13T09:51:28.956Z,5.91
2023-02-13T09:52:41.791Z,5.99
2023-02-13T09:53:37.714Z,6.00
2023-02-13T09:54:32.154Z,5.92
2023-02-13T09:55:30.109Z,5.93
2023-02-13T09:56:19.997Z,5.86
2023-02-13T09:57:15.350Z,5.70
2023-02-13T09:58:38.812Z,6.00
2023-02-13T09:59:35.257Z,6.07
2023-02-13T10:00:39.458Z,5.91
2023-02-13T10:01:52.878Z,6.38
2023-02-13T10:03:13.396Z,6.69
2023-02-13T10:04:30.516Z,7.01
2023-02-13T10:05:32.235Z,6.89
2023-02-13T10:06:30.725Z,6.73
2023-02-13T10:07:30.089Z,6.67
2023-02-13T10:08:53.225Z,6.89
2023-02-13T10:09:37.550Z,7.09
2023-02-13T10:10:34.155Z,7.18
2023-02-13T10:11:43.445Z,7.33
2023-02-13T10:12:53.256Z,7.50
2023-02-13T10:14:01.713Z,7.69
2023-02-13T10:15:02.633Z,7.73
2023-02-13T10:16:02.681Z,7.83
2023-02-13T10:16:55.532Z,7.86
2023-02-13T10:17:42.690Z,7.79
2023-02-13T10:18:41.095Z,8.01
2023-02-13T10:19:43.890Z,8.20
2023-02-13T10:20:38.785Z,8.28
2023-02-13T10:21:28.502Z,8.30
2023-02-13T10:22:22.082Z,8.22
2023-02-13T10:23:19.465Z,8.43
2023-02-13T10:24:09.823Z,8.39
2023-02-13T10:25:16.182Z,8.51
2023-02-13T10:26:13.028Z,8.62
2023-02-13T10:26:56.776Z,8.69
2023-02-13T10:27:44.801Z,8.79
2023-02-13T10:28:39.160Z,8.91
2023-02-13T10:30:05.561Z,9.15
2023-02-13T10:31:03.225Z,9.12
2023-02-13T10:31:48.373Z,9.18
2023-02-13T10:32:43.398Z,9.23
2023-02-13T10:33:32.057Z,9.37
2023-02-13T10:34:17.210Z,9.42
2023-02-13T10:35:02.782Z,9.40
2023-02-13T10:36:10.901Z,9.47
2023-02-13T10:36:52.780Z,9.47
2023-02-13T10:37:36.342Z,9.52
2023-02-13T10:38:20.758Z,9.58
2023-02-13T10:39:13.476Z,9.62
2023-02-13T10:39:55.554Z,9.57
2023-02-13T10:40:40.568Z,9.64
2023-02-13T10:41:30.854Z,9.72
2023-02-13T10:42:47.407Z,9.81
2023-02-13T10:43:34.057Z,9.52
2023-02-13T10:44:49.007Z,9.62
2023-02-13T10:46:07.552Z,9.55
2023-02-13T10:47:19.627Z,9.65
2023-02-13T10:48:17.999Z,9.77
2023-02-13T10:49:57.473Z,9.98
2023-02-13T10:50:55.361Z,10.07
2023-02-13T10:51:54.383Z,10.05
2023-02-13T10:52:42.120Z,10.32
2023-02-13T10:53:35.885Z,10.20
2023-02-13T10:54:32.064Z,9.97
2023-02-13T10:55:19.666Z,10.17
2023-02-13T10:56:23.172Z,10.29
2023-02-13T10:57:18.197Z,10.48
2023-02-13T10:58:07.456Z,10.53
2023-02-13T10:59:04.151Z,10.82
2023-02-13T10:59:58.217Z,10.97
2023-02-13T11:00:55.866Z,11.06
2023-02-13T11:01:37.604Z,11.25
2023-02-13T11:02:29.908Z,11.28
2023-02-13T11:03:31.945Z,11.08
2023-02-13T11:04:17.052Z,10.93
2023-02-13T11:05:14.421Z,10.84
2023-02-13T11:05:58.552Z,10.83
2023-02-13T11:06:55.262Z,10.60
2023-02-13T11:07:39.507Z,10.54
2023-02-13T11:08:28.734Z,10.63
2023-02-13T11:09:13.371Z,10.75
2023-02-13T11:10:00.533Z,10.81
2023-02-13T11:10:45.189Z,10.72
2023-02-13T11:11:36.271Z,10.95
2023-02-13T11:12:31.743Z,10.95
2023-02-13T11:13:17.967Z,11.02
2023-02-13T11:14:08.661Z,11.05
2023-02-13T11:14:55.921Z,11.10
2023-02-13T11:15:37.709Z,11.21
2023-02-13T11:16:19.618Z,11.00
2023-02-13T11:17:05.321Z,11.01
2023-02-13T11:17:47.761Z,11.08
2023-02-13T11:18:34.220Z,10.98
2023-02-13T11:19:22.091Z,10.82
2023-02-13T11:20:27.300Z,10.54
2023-02-13T11:21:14.490Z,11.11
2023-02-13T11:22:01.823Z,10.99
2023-02-13T11:22:43.618Z,11.06
2023-02-13T11:23:38.546Z,11.19
2023-02-13T11:24:26.455Z,11.35
2023-02-13T11:25:22.364Z,11.38
2023-02-13T11:26:10.611Z,11.43
2023-02-13T11:27:01.109Z,11.61
2023-02-13T11:27:43.584Z,11.62
2023-02-13T11:28:29.710Z,11.80
2023-02-13T11:29:30.452Z,11.84
2023-02-13T11:30:39.361Z,12.14
2023-02-13T11:31:31.542Z,12.22
2023-02-13T11:32:27.631Z,12.30
2023-02-13T11:33:29.723Z,12.29
2023-02-13T11:34:29.308Z,11.99
2023-02-13T11:35:31.670Z,11.98
2023-02-13T11:36:35.353Z,11.64
2023-02-13T11:37:19.161Z,11.55
2023-02-13T11:38:14.469Z,11.64
2023-02-13T11:39:17.960Z,11.77
2023-02-13T11:40:00.555Z,11.86
2023-02-13T11:40:46.039Z,12.01
2023-02-13T11:41:29.081Z,12.22
2023-02-13T11:42:40.112Z,12.33
2023-02-13T11:43:36.895Z,12.34
2023-02-13T11:44:29.636Z,12.61
2023-02-13T11:45:21.808Z,12.55
2023-02-13T11:46:09.405Z,12.55
2023-02-13T11:46:55.058Z,12.59